Time;durP1;ratioP1;P1;durP2;ratioP2;P2;SDS_P1;SDS_P2;PMS_P1;PMS_P2;Temp;Humidity;BMP_temperature;BMP_pressure;BME280_temperature;BME280_humidity;BME280_pressure;Samples;Min_cycle;Max_cycle;Signal;HPM_P1;HPM_P2
2022/12/29 00:01:40;;;;;;;1.60;1.50;;;;;;;7.04;55.63;95429.13;6125187;23;20231;-83
2022/12/29 00:04:10;;;;;;;1.40;1.30;;;;;;;7.02;55.43;95421.59;6127099;23;20202;-83
2022/12/29 00:06:37;;;;;;;1.83;1.30;;;;;;;7.04;55.08;95422.25;6125579;23;20187;-82
2022/12/29 00:09:03;;;;;;;2.13;1.30;;;;;;;6.97;54.86;95416.16;6126143;23;20172;-82
2022/12/29 00:11:30;;;;;;;1.23;1.10;;;;;;;7.06;54.56;95417.78;6127237;23;20180;-83
2022/12/29 00:16:45;;;;;;;1.40;1.30;;;;;;;7.10;54.75;95413.94;6101080;23;20203;-83
2022/12/29 00:35:59;;;;;;;1.30;1.20;;;;;;;6.98;54.62;95402.41;6126479;23;20227;-83
2022/12/29 00:44:10;;;;;;;0.90;0.90;;;;;;;6.98;54.60;95404.16;6125279;23;20198;-81
2022/12/29 00:46:37;;;;;;;2.10;1.10;;;;;;;7.00;54.50;95394.56;6125589;23;20164;-81
2022/12/29 00:51:52;;;;;;;2.03;1.00;;;;;;;7.04;54.01;95399.22;6124962;23;20296;-83
2022/12/29 00:54:19;;;;;;;2.70;1.00;;;;;;;7.04;54.27;95399.22;6125517;23;20195;-83
2022/12/29 00:56:47;;;;;;;1.33;1.00;;;;;;;7.10;54.06;95405.47;6124132;23;20188;-82
2022/12/29 00:59:14;;;;;;;1.10;1.00;;;;;;;7.10;54.17;95403.72;6125695;23;20250;-83
2022/12/29 01:01:41;;;;;;;1.00;1.00;;;;;;;7.00;54.27;95403.03;6125114;23;20716;-82
2022/12/29 01:04:10;;;;;;;1.00;1.00;;;;;;;6.97;54.72;95403.34;6125456;23;20196;-82
2022/12/29 01:06:38;;;;;;;0.90;0.90;;;;;;;7.01;54.46;95406.41;6123824;23;20239;-81
2022/12/29 01:11:49;;;;;;;0.97;0.90;;;;;;;7.03;54.47;95404.50;6123996;23;20215;-83
2022/12/29 01:14:15;;;;;;;1.00;1.00;;;;;;;7.07;54.26;95410.91;6125423;23;20250;-83
2022/12/29 01:16:42;;;;;;;0.93;0.93;;;;;;;7.04;54.01;95414.56;6124330;23;20665;-82
2022/12/29 01:19:10;;;;;;;1.00;0.90;;;;;;;6.98;53.80;95409.28;6123636;23;20221;-82
2022/12/29 01:21:36;;;;;;;0.83;0.83;;;;;;;6.94;54.38;95408.78;6124418;23;20187;-82
2022/12/29 01:24:03;;;;;;;1.30;1.20;;;;;;;6.99;54.19;95410.88;6124689;23;20202;-82
2022/12/29 01:26:29;;;;;;;0.90;0.90;;;;;;;6.91;54.05;95416.81;6124820;23;20699;-83
2022/12/29 01:28:55;;;;;;;1.53;0.80;;;;;;;6.93;54.30;95412.31;6123566;23;20184;-82
2022/12/29 01:31:22;;;;;;;1.10;1.00;;;;;;;6.92;54.17;95418.41;6124930;23;20179;-83
2022/12/29 01:33:48;;;;;;;1.47;0.90;;;;;;;6.94;54.01;95414.72;6123365;23;20200;-81
2022/12/29 01:36:19;;;;;;;0.73;0.73;;;;;;;7.00;54.41;95417.59;6123617;23;20209;-81
2022/12/29 01:38:46;;;;;;;1.03;0.93;;;;;;;7.00;53.69;95417.59;6123883;23;20226;-82
2022/12/29 01:41:14;;;;;;;0.90;0.90;;;;;;;7.06;53.83;95414.41;6124474;23;20182;-82
2022/12/29 01:43:42;;;;;;;1.10;1.00;;;;;;;7.03;53.98;95412.97;6124128;23;20199;-81
2022/12/29 01:46:18;;;;;;;1.27;1.07;;;;;;;7.03;53.93;95422.41;6124472;23;20182;-82
2022/12/29 01:48:47;;;;;;;1.00;0.90;;;;;;;7.00;53.69;95412.47;6123709;23;20159;-82
2022/12/29 01:51:13;;;;;;;1.03;0.97;;;;;;;7.00;53.51;95410.72;6123750;23;20183;-82
2022/12/29 01:53:41;;;;;;;1.07;0.97;;;;;;;6.92;53.31;95424.31;6124119;23;20205;-81
2022/12/29 01:56:11;;;;;;;1.37;1.07;;;;;;;6.91;53.43;95420.16;6123530;23;20504;-84
2022/12/29 01:58:42;;;;;;;1.50;1.20;;;;;;;6.89;53.33;95413.59;6123305;23;20188;-85
2022/12/29 02:01:09;;;;;;;1.07;0.97;;;;;;;6.88;53.61;95414.56;6124240;23;20160;-84
2022/12/29 02:03:37;;;;;;;1.00;1.00;;;;;;;6.88;53.63;95407.69;6125218;23;20538;-81
2022/12/29 02:06:09;;;;;;;1.00;1.00;;;;;;;6.92;53.24;95405.63;6126119;23;20207;-84
2022/12/29 02:08:36;;;;;;;0.90;0.90;;;;;;;6.94;53.63;95406.22;6125713;23;20281;-83
2022/12/29 02:11:04;;;;;;;2.23;1.10;;;;;;;6.96;53.40;95396.63;6125914;23;20180;-84
2022/12/29 02:13:30;;;;;;;0.90;0.90;;;;;;;6.89;52.97;95399.06;6126153;23;20203;-84
2022/12/29 02:16:07;;;;;;;0.93;0.87;;;;;;;6.87;53.38;95395.84;6125759;23;20175;-84
2022/12/29 02:18:44;;;;;;;0.90;0.90;;;;;;;6.97;53.45;95389.75;6125576;23;20214;-85
2022/12/29 02:21:45;;;;;;;1.03;0.90;;;;;;;6.99;52.83;95396.31;6124932;23;20167;-84
2022/12/29 02:24:38;;;;;;;1.13;1.03;;;;;;;6.93;52.98;95392.63;6125136;23;20202;-82
2022/12/29 02:27:29;;;;;;;1.10;1.00;;;;;;;6.90;53.27;95404.97;6126036;23;20219;-82
2022/12/29 02:30:19;;;;;;;1.10;1.00;;;;;;;6.90;53.17;95402.41;6125607;23;20172;-82
2022/12/29 02:32:53;;;;;;;0.70;0.70;;;;;;;6.80;52.74;95399.97;6112490;23;20234;-81
2022/12/29 02:35:29;;;;;;;2.20;1.10;;;;;;;6.86;53.13;95391.69;6125497;23;20250;-83
2022/12/29 02:38:04;;;;;;;0.90;0.90;;;;;;;6.88;52.79;95397.44;6125577;23;20179;-83
2022/12/29 02:40:41;;;;;;;0.87;0.87;;;;;;;6.89;52.55;95393.13;6126033;23;20540;-80
2022/12/29 02:43:20;;;;;;;1.03;0.90;;;;;;;6.96;53.07;95388.97;6125211;23;20264;-81
2022/12/29 02:45:54;;;;;;;1.00;0.90;;;;;;;7.00;52.57;95380.00;6126241;23;20167;-81
2022/12/29 02:48:27;;;;;;;0.90;0.90;;;;;;;6.96;52.09;95372.81;6125055;23;20159;-82
2022/12/29 02:50:59;;;;;;;1.43;0.97;;;;;;;7.04;52.18;95377.94;6125114;23;20156;-81
2022/12/29 02:56:12;;;;;;;1.03;0.93;;;;;;;7.07;51.94;95378.41;6124950;23;20184;-82
2022/12/29 02:58:39;;;;;;;0.90;0.90;;;;;;;7.10;51.84;95379.88;6125691;23;20183;-80
2022/12/29 03:01:22;;;;;;;1.10;0.93;;;;;;;7.12;51.50;95378.72;6125621;23;20230;-83
2022/12/29 03:04:04;;;;;;;1.37;1.03;;;;;;;7.17;51.31;95373.13;6125749;23;20560;-83
2022/12/29 03:06:37;;;;;;;0.80;0.80;;;;;;;7.24;51.74;95369.78;6124151;23;20676;-83
2022/12/29 03:09:15;;;;;;;0.80;0.80;;;;;;;7.30;51.47;95370.09;6125749;23;20160;-83
2022/12/29 03:12:09;;;;;;;1.03;0.93;;;;;;;7.32;50.96;95366.38;6125235;23;20167;-81
2022/12/29 03:17:35;;;;;;;0.90;0.90;;;;;;;7.35;51.08;95355.84;6124924;23;20174;-82
2022/12/29 03:20:08;;;;;;;1.20;1.10;;;;;;;7.39;50.97;95356.31;6125308;23;20179;-82
2022/12/29 03:22:40;;;;;;;1.57;0.90;;;;;;;7.38;50.49;95357.28;6125651;23;20159;-82
2022/12/29 03:25:12;;;;;;;1.10;1.00;;;;;;;7.40;50.45;95363.03;6124899;23;20204;-81
2022/12/29 03:27:42;;;;;;;3.50;1.07;;;;;;;7.44;50.45;95359.19;6124215;23;20545;-81
2022/12/29 03:30:10;;;;;;;0.77;0.77;;;;;;;7.47;50.67;95352.00;6125034;23;20848;-82
2022/12/29 03:32:41;;;;;;;1.17;0.97;;;;;;;7.55;50.15;95351.16;6124610;23;20518;-82
2022/12/29 03:35:13;;;;;;;0.97;0.97;;;;;;;7.53;50.36;95353.06;6125682;23;20199;-82
2022/12/29 03:37:44;;;;;;;1.00;0.93;;;;;;;7.52;50.08;95341.22;6124829;23;20603;-81
2022/12/29 03:40:11;;;;;;;1.10;1.00;;;;;;;7.54;50.09;95345.22;6125625;23;20184;-82
2022/12/29 03:42:39;;;;;;;0.87;0.83;;;;;;;7.58;50.19;95346.50;6126124;23;20186;-82
2022/12/29 03:45:07;;;;;;;1.20;1.10;;;;;;;7.58;50.10;95346.50;6125440;23;20247;-82
2022/12/29 03:47:33;;;;;;;1.03;1.00;;;;;;;7.59;49.82;95342.19;6125331;23;20172;-82
2022/12/29 03:50:01;;;;;;;0.87;0.83;;;;;;;7.52;50.04;95344.59;6125106;23;20183;-81
2022/12/29 03:52:28;;;;;;;1.43;1.10;;;;;;;7.56;50.57;95347.63;6125235;23;20648;-82
2022/12/29 03:54:55;;;;;;;0.80;0.80;;;;;;;7.59;50.21;95339.63;6125050;23;20195;-82
2022/12/29 03:57:21;;;;;;;0.90;0.90;;;;;;;7.60;50.50;95336.09;6124499;23;20182;-82
2022/12/29 03:59:47;;;;;;;1.10;1.00;;;;;;;7.56;49.88;95338.19;6124549;23;20720;-81
2022/12/29 04:02:14;;;;;;;0.90;0.90;;;;;;;7.60;50.20;95338.66;6124721;23;20179;-82
2022/12/29 04:04:40;;;;;;;1.93;1.00;;;;;;;7.57;49.61;95338.97;6125839;23;20199;-81
2022/12/29 04:07:06;;;;;;;1.10;1.00;;;;;;;7.61;50.31;95342.81;6125413;23;20258;-82
2022/12/29 04:09:34;;;;;;;1.70;1.17;;;;;;;7.57;49.49;95344.09;6125666;23;20172;-82
2022/12/29 04:12:00;;;;;;;1.50;1.30;;;;;;;7.59;49.86;95345.56;6125654;23;20180;-83
2022/12/29 04:14:27;;;;;;;1.73;1.10;;;;;;;7.63;49.86;95338.34;6125459;23;20200;-81
2022/12/29 04:16:53;;;;;;;1.77;1.10;;;;;;;7.63;49.71;95335.78;6125130;23;20176;-82
2022/12/29 04:19:20;;;;;;;1.20;1.10;;;;;;;7.71;49.52;95340.84;6124963;23;20203;-82
2022/12/29 04:21:46;;;;;;;0.90;0.90;;;;;;;7.78;49.38;95348.69;6125602;23;20905;-82
2022/12/29 04:24:12;;;;;;;1.33;1.13;;;;;;;7.82;49.48;95350.78;6124571;23;20199;-80
2022/12/29 04:26:40;;;;;;;1.00;1.00;;;;;;;7.86;49.36;95341.81;6125169;23;20180;-82
2022/12/29 04:29:07;;;;;;;0.90;0.90;;;;;;;7.87;49.50;95342.59;6124452;23;20242;-82
2022/12/29 04:31:33;;;;;;;1.07;1.00;;;;;;;7.84;49.15;95335.25;6124631;23;20180;-80
2022/12/29 04:34:00;;;;;;;0.80;0.80;;;;;;;7.87;49.05;95334.91;6124022;23;20203;-83
2022/12/29 04:36:26;;;;;;;1.50;1.00;;;;;;;7.91;49.04;95331.81;6125064;23;20191;-82
2022/12/29 04:38:53;;;;;;;1.80;1.10;;;;;;;7.86;49.55;95335.88;6124773;23;20182;-81
2022/12/29 04:41:19;;;;;;;1.63;1.00;;;;;;;7.86;48.79;95320.50;6124358;23;20258;-81
2022/12/29 04:43:47;;;;;;;0.80;0.80;;;;;;;7.93;49.08;95327.34;6124774;23;20262;-82
2022/12/29 04:46:13;;;;;;;0.87;0.87;;;;;;;7.96;48.57;95321.09;6124958;23;20175;-81
2022/12/29 04:48:40;;;;;;;1.20;1.10;;;;;;;7.95;48.69;95319.47;6123867;23;20187;-82
2022/12/29 04:51:06;;;;;;;1.10;1.00;;;;;;;7.92;48.79;95320.59;6124974;23;20700;-82
2022/12/29 04:53:32;;;;;;;1.87;1.07;;;;;;;7.95;48.61;95322.84;6124112;23;20206;-82
2022/12/29 04:55:59;;;;;;;1.17;1.00;;;;;;;7.96;48.94;95329.56;6124073;23;20562;-82
2022/12/29 04:58:25;;;;;;;1.20;1.10;;;;;;;8.06;48.51;95331.16;6123618;23;20188;-82
2022/12/29 05:00:53;;;;;;;1.10;1.00;;;;;;;8.08;48.49;95322.31;6124604;23;20199;-82
2022/12/29 05:03:20;;;;;;;2.87;1.00;;;;;;;8.08;48.63;95324.88;6123632;23;20199;-82
2022/12/29 05:05:46;;;;;;;0.87;0.87;;;;;;;8.10;48.46;95334.94;6123867;23;20196;-82
2022/12/29 05:08:12;;;;;;;2.13;1.30;;;;;;;8.08;48.68;95334.34;6123551;23;20184;-82
2022/12/29 05:10:39;;;;;;;1.10;1.00;;;;;;;8.09;48.86;95334.16;6124352;23;20171;-83
2022/12/29 05:13:05;;;;;;;2.70;0.80;;;;;;;8.15;48.57;95332.69;6122950;23;20180;-83
2022/12/29 05:15:32;;;;;;;3.57;1.00;;;;;;;8.11;48.20;95329.66;6124214;23;20179;-82
2022/12/29 05:17:59;;;;;;;1.00;0.90;;;;;;;8.12;48.78;95341.53;6124047;23;20186;-81
2022/12/29 05:20:26;;;;;;;1.70;1.07;;;;;;;8.09;48.72;95334.16;6123629;23;20837;-83
2022/12/29 05:22:52;;;;;;;0.93;0.90;;;;;;;8.06;48.20;95337.06;6128010;23;20195;-83
2022/12/29 05:25:18;;;;;;;1.30;1.10;;;;;;;8.15;48.80;95340.38;6128092;23;20188;-83
2022/12/29 05:27:45;;;;;;;1.17;1.00;;;;;;;8.13;48.08;95344.88;6127632;23;20214;-83
2022/12/29 05:30:12;;;;;;;1.27;1.17;;;;;;;8.20;48.26;95336.38;6118013;23;20202;-82
2022/12/29 05:32:39;;;;;;;1.07;0.97;;;;;;;8.20;48.09;95333.81;6117587;23;20156;-82
2022/12/29 05:35:08;;;;;;;0.90;0.90;;;;;;;8.20;47.82;95333.00;6123245;23;20188;-82
2022/12/29 05:37:34;;;;;;;1.10;1.00;;;;;;;8.18;47.77;95329.81;6123995;23;20160;-83
2022/12/29 05:40:01;;;;;;;2.13;0.90;;;;;;;8.17;47.94;95325.63;6123495;23;20195;-85
2022/12/29 05:42:27;;;;;;;1.10;1.00;;;;;;;8.14;48.01;95333.66;6124752;23;20191;-84
2022/12/29 05:44:53;;;;;;;0.90;0.90;;;;;;;8.14;47.94;95326.75;6124106;23;20203;-81
2022/12/29 05:47:20;;;;;;;1.57;0.80;;;;;;;8.16;47.71;95329.16;6121574;23;20182;-83
2022/12/29 05:49:46;;;;;;;1.00;0.90;;;;;;;8.21;47.69;95326.91;6127313;23;20183;-82
2022/12/29 05:52:14;;;;;;;0.90;0.90;;;;;;;8.24;47.65;95332.50;6127383;23;20176;-83
2022/12/29 05:54:40;;;;;;;1.17;1.07;;;;;;;8.26;47.49;95334.91;6125357;23;20594;-82
2022/12/29 05:57:07;;;;;;;1.27;1.00;;;;;;;8.29;47.79;95331.97;6127044;23;20234;-83
2022/12/29 05:59:33;;;;;;;2.83;1.10;;;;;;;8.25;47.79;95331.53;6126596;23;20183;-83
2022/12/29 06:02:00;;;;;;;1.93;1.10;;;;;;;8.20;47.71;95326.09;6127126;23;20549;-82
2022/12/29 06:04:26;;;;;;;1.00;0.90;;;;;;;8.24;47.68;95331.72;6126424;23;20207;-82
2022/12/29 06:06:52;;;;;;;2.73;1.10;;;;;;;8.29;47.75;95325.09;6125010;23;20183;-83
2022/12/29 06:09:20;;;;;;;1.00;1.00;;;;;;;8.33;47.61;95335.84;6125619;23;20564;-83
2022/12/29 06:11:47;;;;;;;3.53;1.00;;;;;;;8.33;47.33;95330.72;6126109;23;21010;-83
2022/12/29 06:14:13;;;;;;;1.20;1.10;;;;;;;8.36;47.99;95332.94;6126240;23;20199;-83
2022/12/29 06:16:39;;;;;;;1.87;1.20;;;;;;;8.39;47.65;95331.81;6125205;23;20183;-82
2022/12/29 06:19:10;;;;;;;1.00;1.00;;;;;;;8.39;47.47;95332.59;6124622;23;20175;-82
2022/12/29 06:21:37;;;;;;;0.93;0.90;;;;;;;8.42;47.34;95331.47;6123693;23;20203;-83
2022/12/29 06:24:05;;;;;;;2.20;0.90;;;;;;;8.47;47.70;95340.25;6122193;23;20231;-83
2022/12/29 06:26:32;;;;;;;1.70;1.00;;;;;;;8.52;47.74;95344.88;6125100;23;20167;-83
2022/12/29 06:28:59;;;;;;;1.40;1.10;;;;;;;8.47;47.43;95340.25;6124071;23;20176;-83
2022/12/29 06:31:25;;;;;;;1.23;1.07;;;;;;;8.47;47.60;95334.31;6123209;23;20180;-83
2022/12/29 06:33:51;;;;;;;2.40;1.20;;;;;;;8.49;47.20;95338.31;6122647;23;20337;-82
2022/12/29 06:36:18;;;;;;;1.53;1.10;;;;;;;8.51;47.37;95328.69;6123543;23;20179;-82
2022/12/29 06:38:44;;;;;;;3.20;0.93;;;;;;;8.48;47.89;95336.72;6125324;23;20666;-82
2022/12/29 06:41:11;;;;;;;1.20;1.10;;;;;;;8.47;47.79;95335.13;6124978;23;20210;-82
2022/12/29 06:43:38;;;;;;;1.90;1.07;;;;;;;8.49;47.99;95333.19;6126829;23;20195;-83
2022/12/29 06:46:05;;;;;;;4.97;1.30;;;;;;;8.43;49.38;95330.50;6126127;23;20184;-82
2022/12/29 06:48:31;;;;;;;1.47;1.20;;;;;;;8.44;48.54;95327.78;6127640;23;20660;-82
2022/12/29 06:50:59;;;;;;;1.37;1.13;;;;;;;8.43;48.22;95340.78;6126541;23;20180;-81
2022/12/29 06:53:26;;;;;;;3.87;1.30;;;;;;;8.39;47.88;95337.75;6126669;23;20199;-81
2022/12/29 06:55:56;;;;;;;2.17;1.10;;;;;;;8.38;48.53;95331.00;6124940;23;20841;-80
2022/12/29 06:58:22;;;;;;;1.40;1.30;;;;;;;8.35;48.60;95331.34;6123787;23;20180;-82
2022/12/29 07:00:50;;;;;;;3.87;1.20;;;;;;;8.28;48.43;95332.94;6125091;23;20211;-82
2022/12/29 07:03:17;;;;;;;1.20;1.10;;;;;;;8.30;48.49;95338.69;6125113;23;20196;-83
2022/12/29 07:05:43;;;;;;;1.43;1.20;;;;;;;8.21;48.36;95330.28;6126096;23;20179;-82
2022/12/29 07:08:11;;;;;;;1.20;1.00;;;;;;;8.16;48.43;95345.34;6126754;23;20160;-82
2022/12/29 07:10:38;;;;;;;0.93;0.93;;;;;;;8.12;48.46;95349.22;6125771;23;20186;-82
2022/12/29 07:13:04;;;;;;;2.50;1.30;;;;;;;8.15;48.53;95351.44;6128985;23;20164;-82
2022/12/29 07:15:30;;;;;;;1.53;1.10;;;;;;;8.16;48.04;95355.59;6127053;23;20180;-81
2022/12/29 07:17:58;;;;;;;1.63;1.20;;;;;;;8.19;48.17;95367.31;6127606;23;20183;-82
2022/12/29 07:20:25;;;;;;;2.40;1.20;;;;;;;8.23;48.03;95366.00;6127293;23;20199;-82
2022/12/29 07:22:51;;;;;;;1.37;1.10;;;;;;;8.28;48.07;95366.28;6127181;23;20179;-81
2022/12/29 07:25:17;;;;;;;1.27;1.13;;;;;;;8.27;48.26;95362.16;6126581;23;20199;-83
2022/12/29 07:27:44;;;;;;;0.93;0.90;;;;;;;8.28;47.80;95364.53;6126693;23;20179;-82
2022/12/29 07:30:11;;;;;;;1.30;1.10;;;;;;;8.31;48.30;95363.38;6127590;23;20182;-82
2022/12/29 07:32:38;;;;;;;1.73;1.30;;;;;;;8.32;47.71;95373.50;6124787;23;20179;-85
2022/12/29 07:35:06;;;;;;;1.67;1.27;;;;;;;8.43;47.72;95372.34;6126015;23;20199;-82
2022/12/29 07:37:33;;;;;;;1.30;1.10;;;;;;;8.42;47.42;95375.88;6127625;23;20530;-82
2022/12/29 07:39:59;;;;;;;1.33;1.20;;;;;;;8.49;47.70;95381.13;6127163;23;20186;-83
2022/12/29 07:42:25;;;;;;;2.33;1.10;;;;;;;8.56;47.78;95382.88;6125366;23;20258;-81
2022/12/29 07:44:52;;;;;;;2.10;1.10;;;;;;;8.59;47.55;95376.59;6125742;23;20207;-82
2022/12/29 07:47:18;;;;;;;1.40;1.13;;;;;;;8.62;47.32;95371.94;6124201;23;20672;-83
2022/12/29 07:49:45;;;;;;;1.10;1.00;;;;;;;8.63;47.10;95378.66;6125810;23;20183;-81
2022/12/29 07:52:12;;;;;;;1.57;1.47;;;;;;;8.66;46.95;95377.50;6124296;23;20176;-83
2022/12/29 07:54:39;;;;;;;3.20;1.20;;;;;;;8.73;46.77;95381.00;6124642;23;20203;-85
2022/12/29 07:57:06;;;;;;;1.47;1.10;;;;;;;8.86;46.30;95377.84;6123884;23;20215;-83
2022/12/29 07:59:32;;;;;;;1.30;1.20;;;;;;;8.95;46.66;95384.53;6126020;23;20194;-82
2022/12/29 08:01:59;;;;;;;1.20;1.10;;;;;;;9.10;46.01;95377.69;6124805;23;20591;-82
2022/12/29 08:04:25;;;;;;;0.90;0.90;;;;;;;9.21;45.90;95381.63;6126600;23;20200;-83
2022/12/29 08:06:51;;;;;;;1.30;1.20;;;;;;;9.38;45.85;95390.81;6125363;23;20188;-83
2022/12/29 08:09:19;;;;;;;1.77;1.17;;;;;;;9.44;44.62;95381.59;6125427;23;20180;-85
2022/12/29 08:11:45;;;;;;;3.97;1.30;;;;;;;9.54;44.99;95390.66;6126135;23;20160;-82
2022/12/29 08:14:12;;;;;;;1.73;1.20;;;;;;;9.64;44.60;95382.69;6124348;23;20199;-82
2022/12/29 08:16:38;;;;;;;1.53;1.40;;;;;;;9.73;44.45;95370.56;6122993;23;20211;-83
2022/12/29 08:19:05;;;;;;;2.77;1.27;;;;;;;9.78;44.18;95379.34;6126055;23;20184;-83
2022/12/29 08:21:32;;;;;;;2.13;1.37;;;;;;;9.72;43.94;95371.53;6126079;23;20239;-83
2022/12/29 08:23:58;;;;;;;1.40;1.20;;;;;;;9.77;43.70;95377.75;6126882;23;20220;-83
2022/12/29 08:26:26;;;;;;;1.47;1.30;;;;;;;9.80;43.90;95366.31;6127200;23;20963;-82
2022/12/29 08:28:53;;;;;;;1.20;1.10;;;;;;;9.79;43.61;95360.38;6126048;23;20179;-85
2022/12/29 08:31:19;;;;;;;2.90;1.20;;;;;;;9.83;43.52;95374.47;6125677;23;20656;-85
2022/12/29 08:33:46;;;;;;;1.83;1.03;;;;;;;9.83;43.61;95369.31;6122107;23;20203;-80
2022/12/29 08:36:12;;;;;;;3.63;1.60;;;;;;;10.01;43.78;95372.31;6121595;23;20175;-80
2022/12/29 08:38:38;;;;;;;5.60;1.43;;;;;;;10.16;43.61;95368.97;6119059;23;20187;-83
2022/12/29 08:41:05;;;;;;;5.17;1.40;;;;;;;10.23;43.43;95378.38;6124592;23;20202;-84
2022/12/29 08:43:33;;;;;;;2.63;1.47;;;;;;;10.29;43.07;95362.22;6125938;23;20368;-83
2022/12/29 08:46:00;;;;;;;8.23;1.63;;;;;;;10.33;43.14;95376.34;6123444;23;20163;-82
2022/12/29 08:48:26;;;;;;;2.03;1.20;;;;;;;10.33;43.08;95376.34;6124416;23;20231;-83
2022/12/29 08:50:53;;;;;;;1.87;1.30;;;;;;;10.25;43.37;95370.47;6124487;23;20183;-83
2022/12/29 08:53:20;;;;;;;2.53;1.30;;;;;;;10.29;43.54;95367.38;6124222;23;20203;-83
2022/12/29 08:55:47;;;;;;;2.43;1.20;;;;;;;10.39;43.30;95388.47;6125542;23;20509;-81
2022/12/29 08:58:14;;;;;;;2.20;1.30;;;;;;;10.46;43.21;95388.56;6125112;23;20230;-82
2022/12/29 09:00:43;;;;;;;2.70;1.47;;;;;;;10.43;42.77;95390.69;6123137;23;20198;-82
2022/12/29 09:03:09;;;;;;;1.87;1.03;;;;;;;10.41;43.19;95393.44;6122063;23;20170;-82
2022/12/29 09:05:36;;;;;;;7.03;2.00;;;;;;;10.49;42.83;95397.69;6123846;23;20210;-82
2022/12/29 09:08:02;;;;;;;6.87;1.77;;;;;;;10.66;42.38;95397.31;6124093;23;20170;-84
2022/12/29 09:10:29;;;;;;;2.70;1.20;;;;;;;10.86;42.32;95400.09;6124328;23;20610;-82
2022/12/29 09:12:55;;;;;;;2.03;1.30;;;;;;;10.77;41.59;95395.25;6123775;23;20182;-82
2022/12/29 09:15:21;;;;;;;5.23;1.50;;;;;;;10.65;42.28;95397.47;6124308;23;20210;-83
2022/12/29 09:17:49;;;;;;;1.20;1.10;;;;;;;10.69;42.13;95403.88;6122665;23;20187;-83
2022/12/29 09:20:18;;;;;;;1.20;1.10;;;;;;;10.64;42.24;95403.63;6123811;23;20187;-83
2022/12/29 09:22:45;;;;;;;3.70;1.27;;;;;;;10.67;42.73;95400.69;6122611;23;20206;-82
2022/12/29 09:25:13;;;;;;;1.37;1.27;;;;;;;10.82;42.60;95398.06;6123304;23;20199;-83
2022/12/29 09:27:39;;;;;;;2.33;1.33;;;;;;;10.85;42.50;95397.69;6123766;23;20669;-83
2022/12/29 09:30:09;;;;;;;3.60;1.60;;;;;;;10.92;42.27;95396.00;6122936;23;20179;-83
2022/12/29 09:32:36;;;;;;;1.50;1.27;;;;;;;11.00;42.82;95395.88;6122030;23;20657;-81
2022/12/29 09:35:05;;;;;;;1.30;1.20;;;;;;;11.15;42.09;95395.81;6121784;23;20203;-85
2022/12/29 09:37:31;;;;;;;1.83;1.07;;;;;;;11.23;42.38;95398.25;6122435;23;20180;-82
2022/12/29 09:39:57;;;;;;;1.63;1.30;;;;;;;11.23;42.24;95393.91;6123537;23;20179;-82
2022/12/29 09:42:30;;;;;;;3.20;1.30;;;;;;;11.21;42.16;95384.75;6123015;23;20818;-83
2022/12/29 09:45:11;;;;;;;1.30;1.20;;;;;;;11.19;42.12;95392.69;6123413;23;20223;-83
2022/12/29 09:47:37;;;;;;;1.50;1.10;;;;;;;11.10;41.41;95393.00;6122216;23;20514;-83
2022/12/29 09:50:23;;;;;;;1.67;1.30;;;;;;;11.07;40.85;95387.22;6123384;23;20180;-82
2022/12/29 09:52:54;;;;;;;11.60;6.07;;;;;;;11.02;41.65;95393.91;6123378;23;20610;-83
2022/12/29 09:55:25;;;;;;;5.83;1.30;;;;;;;11.05;41.16;95388.38;6122520;23;20830;-82
2022/12/29 09:57:56;;;;;;;1.20;1.10;;;;;;;11.01;40.88;95380.22;6122423;23;20387;-83
2022/12/29 10:00:27;;;;;;;1.37;1.00;;;;;;;11.04;40.68;95386.78;6121831;23;20230;-82
2022/12/29 10:03:00;;;;;;;2.27;1.17;;;;;;;11.00;40.85;95378.63;6122641;23;20465;-82
2022/12/29 10:05:38;;;;;;;1.53;1.20;;;;;;;10.99;40.56;95384.75;6122044;23;20160;-81
2022/12/29 10:08:18;;;;;;;1.20;1.10;;;;;;;10.97;40.70;95373.03;6122258;23;20171;-81
2022/12/29 10:10:54;;;;;;;1.80;1.20;;;;;;;10.98;40.81;95367.72;6121539;23;20171;-82
2022/12/29 10:13:33;;;;;;;1.10;1.00;;;;;;;10.96;40.20;95374.84;6122561;23;20199;-80
2022/12/29 10:16:05;;;;;;;1.50;1.20;;;;;;;10.99;40.23;95369.31;6123919;23;20555;-82
2022/12/29 10:19:11;;;;;;;2.50;1.10;;;;;;;11.01;39.96;95372.50;6122216;23;20164;-81
2022/12/29 10:21:53;;;;;;;3.70;1.10;;;;;;;11.07;40.36;95374.34;6123231;23;20293;-80
2022/12/29 10:24:22;;;;;;;3.07;1.40;;;;;;;11.14;40.22;95364.13;6123995;23;20561;-82
2022/12/29 10:26:52;;;;;;;5.23;1.40;;;;;;;11.18;40.32;95362.72;6126040;23;20180;-82
2022/12/29 10:29:21;;;;;;;2.37;1.60;;;;;;;11.23;39.78;95359.59;6123957;23;20191;-82
2022/12/29 10:31:51;;;;;;;1.30;1.20;;;;;;;11.29;39.83;95367.41;6124104;23;20244;-82
2022/12/29 10:34:23;;;;;;;2.10;1.30;;;;;;;11.30;39.45;95365.63;6125414;23;20196;-81
2022/12/29 10:36:56;;;;;;;2.13;1.20;;;;;;;11.38;39.69;95368.06;6123873;23;20167;-82
2022/12/29 10:39:26;;;;;;;1.37;1.23;;;;;;;11.45;39.75;95363.75;6126099;23;20216;-82
2022/12/29 10:41:58;;;;;;;1.20;1.10;;;;;;;11.54;39.74;95362.66;6126263;23;20555;-82
2022/12/29 10:44:30;;;;;;;2.50;1.37;;;;;;;11.62;39.61;95357.34;6129551;23;20522;-81
2022/12/29 10:47:01;;;;;;;2.03;1.23;;;;;;;11.68;39.70;95355.78;6124578;23;20268;-82
2022/12/29 10:49:30;;;;;;;3.17;1.20;;;;;;;11.67;39.27;95351.63;6126931;23;20549;-82
2022/12/29 10:52:01;;;;;;;1.90;1.00;;;;;;;11.64;39.69;95344.25;6125918;23;20180;-81
2022/12/29 10:54:33;;;;;;;1.43;1.03;;;;;;;11.75;39.70;95347.09;6126939;23;20227;-83
2022/12/29 10:57:02;;;;;;;2.90;1.10;;;;;;;11.82;39.17;95336.84;6128884;23;20914;-82
2022/12/29 10:59:31;;;;;;;4.07;1.30;;;;;;;11.98;39.77;95338.31;6128792;23;20176;-82
2022/12/29 11:02:05;;;;;;;2.60;1.20;;;;;;;12.01;38.86;95337.94;6127364;23;20200;-82
2022/12/29 11:04:42;;;;;;;1.20;1.10;;;;;;;12.06;38.86;95335.59;6129083;23;20205;-82
2022/12/29 11:07:11;;;;;;;3.00;1.30;;;;;;;12.09;38.77;95332.63;6128134;23;20190;-82
2022/12/29 11:09:40;;;;;;;1.20;1.10;;;;;;;12.25;39.26;95328.91;6128772;23;20376;-83
2022/12/29 11:12:20;;;;;;;1.77;1.30;;;;;;;12.41;39.24;95326.00;6123469;23;20179;-82
2022/12/29 11:14:46;;;;;;;1.10;1.10;;;;;;;12.40;39.25;95317.47;6127074;23;20200;-84
2022/12/29 11:17:17;;;;;;;1.57;1.30;;;;;;;12.56;39.28;95326.63;6129165;23;20684;-84
2022/12/29 11:19:44;;;;;;;1.57;1.20;;;;;;;12.78;39.22;95315.16;6126754;23;20171;-83
2022/12/29 11:22:22;;;;;;;2.10;1.27;;;;;;;12.91;38.87;95313.56;6127496;23;20184;-84
2022/12/29 11:24:50;;;;;;;1.83;1.33;;;;;;;12.92;38.71;95302.25;6127905;23;20195;-84
2022/12/29 11:27:19;;;;;;;2.30;1.20;;;;;;;12.99;38.34;95305.66;6128301;23;20254;-83
2022/12/29 11:29:46;;;;;;;1.57;1.20;;;;;;;12.96;38.69;95293.91;6126781;23;20254;-84
2022/12/29 11:32:14;;;;;;;1.30;1.17;;;;;;;13.03;38.75;95301.69;6125257;23;20656;-84
2022/12/29 11:34:40;;;;;;;0.90;0.90;;;;;;;13.05;37.89;95305.66;6126167;23;20200;-85
2022/12/29 11:37:13;;;;;;;1.70;1.20;;;;;;;13.20;37.13;95300.31;6124848;23;20176;-85
2022/12/29 11:39:46;;;;;;;1.53;1.00;;;;;;;13.34;37.47;95290.75;6125106;23;20160;-85
2022/12/29 11:42:16;;;;;;;2.20;1.30;;;;;;;13.19;36.13;95295.34;6126750;23;20210;-85
2022/12/29 11:44:45;;;;;;;1.60;1.00;;;;;;;13.09;36.77;95288.72;6126260;23;20207;-85
2022/12/29 11:47:21;;;;;;;2.97;1.40;;;;;;;13.07;37.11;95293.34;6123436;23;20238;-83
2022/12/29 11:49:50;;;;;;;1.20;1.07;;;;;;;13.29;36.62;95285.38;6127273;23;20221;-84
2022/12/29 11:52:21;;;;;;;1.77;1.37;;;;;;;13.48;36.60;95290.53;6126047;23;20176;-84
2022/12/29 11:54:48;;;;;;;1.90;1.00;;;;;;;13.79;37.22;95289.09;6125853;23;20250;-83
2022/12/29 11:57:18;;;;;;;1.45;1.10;;;;;;;13.88;35.81;95287.84;6124134;23;20152;-84
2022/12/29 11:59:50;;;;;;;1.57;1.00;;;;;;;13.97;35.49;95280.66;6127219;23;20180;-85
2022/12/29 12:02:33;;;;;;;1.27;1.15;;;;;;;14.12;35.18;95287.19;6125233;23;20184;-82
2022/12/29 12:05:06;;;;;;;1.43;1.10;;;;;;;14.12;34.56;95292.34;6123378;23;20204;-82
2022/12/29 12:07:40;;;;;;;2.20;1.02;;;;;;;14.21;34.76;95285.16;6122980;23;20529;-82
2022/12/29 12:10:16;;;;;;;1.10;0.90;;;;;;;14.30;34.97;95285.69;6124528;23;20550;-83
2022/12/29 12:12:50;;;;;;;1.20;0.90;;;;;;;14.39;34.94;95279.28;6122992;23;20545;-82
2022/12/29 12:15:23;;;;;;;1.48;1.05;;;;;;;14.49;34.99;95284.84;6124930;23;20376;-82
2022/12/29 12:17:54;;;;;;;2.15;1.10;;;;;;;14.67;35.07;95282.34;6123942;23;20163;-83
2022/12/29 12:20:25;;;;;;;1.10;1.00;;;;;;;14.56;34.36;95280.44;6125061;23;20171;-83
2022/12/29 12:23:03;;;;;;;2.35;1.13;;;;;;;14.45;35.22;95276.69;6124226;23;20184;-83
2022/12/29 12:25:38;;;;;;;1.83;1.00;;;;;;;14.30;35.48;95264.97;6125278;23;20164;-82